Etusivu
METAR-TAF:

METAR-TAF

Lentoasemat :

Manta, Ecuador

Leveyspiiri: 00-57S, Pituuspiiri: 080-41W, korkeus merenpinnasta: 13 m

Tämänhetkinen sää

Tämä raportti tehtiin 28 minuuttia sitten, kello 21.00 UTC
Tuuli 9 kn lännestä
Lämpötila 28°C
Kosteus 74%
Ilmanpaine 1004 hPa
Näkyvyys 10 km tai enemmän
Hajonneita pilviä 2000 ft:n korkeudessa

METAR: SEMT 112100Z 26009KT 9999 BKN020 28/23 Q1004 RMK A2965

Aika: 16:28 (21:28 UTC)

Sääennuste

Tämä raportti tehtiin 5 tuntia ja 18 minuuttia sitten, kello 16.10 UTC
Ennuste voimassa 11. päivästä klo 18 UTC - 12. päivään klo 18 UTC
Tuuli 10 kn lännestä
Näkyvyys 10 km tai enemmän
Hajonneita pilviä 2300 ft:n korkeudessa
Tulossa
11. päivästä klo 22 UTC - 11. päivään klo 24 UTC
Tuuli 8 kn etelästä/lounaasta

TAF: SEMT 111610Z 1118/1218 27010KT 9999 BKN023 BECMG 1122/1124 20008KT TX29/1120Z TN25/1210Z

Säähavainnot ja -ennusteet yli 4000 lentoasemalta (METAR- ja TAF-raportit).

Käytössä olevat sääasemat on merkitty karttaan keltaisilla ja punaisilla pisteillä.

Aseta hiiri pisteen päälle nähdäksesi sääaseman nimen.

Klikkaa sitten nähdäksesi säähavainnot ja -ennusteet.

Kartan vaihtaminen: klikkaa mustalla rastilla varustettuja vihreitä pisteitä, niin voit zoomata sisään; viivalla varustettua vihreää pistettä, niin voit zoomata ulos tai vihreitä nuolia, niin pääset viereisille kartoille.


METAR-TAF: